Terminal Aerodrome Forecast
Issued by NWS Cleveland, OH

Home | Current Version | Previous Version | Graphics & Text | Print | Product List | Glossary Off
Versions: 1 2 3 4 5 6 7 8 9 10 11 12 13 14 15 16 17 18

000
FTUS41 KCLE 131400 AAA
TAFYNG
TAF AMD
KYNG 131437Z 1315/1412 22012KT P6SM VCSH SCT025 OVC060
      TEMPO 1315/1317 4SM -SHRA BR BKN025 OVC035
     FM131900 23012G20KT P6SM VCTS BKN035CB
     FM132300 24009KT P6SM BKN035
     FM140200 22006KT P6SM SCT035
     FM140400 21004KT 4SM BR SCT200=

USA.gov is the U.S. government's official web portal to all federal, state and local government web resources and services.